Time;durP1;ratioP1;P1;durP2;ratioP2;P2;SDS_P1;SDS_P2;PMS_P1;PMS_P2;Temp;Humidity;BMP_temperature;BMP_pressure;BME280_temperature;BME280_humidity;BME280_pressure;Samples;Min_cycle;Max_cycle;Signal;HPM_P1;HPM_P2
2021/08/25 00:02:25;;;;;;;16.53;15.53;;;14.50;99.90;;;;;;4995626;28;20477;-70
2021/08/25 00:04:52;;;;;;;16.13;15.17;;;14.40;99.90;;;;;;4995871;28;20445;-69
2021/08/25 00:07:18;;;;;;;16.00;15.20;;;14.40;99.90;;;;;;4995701;28;20483;-69
2021/08/25 00:09:45;;;;;;;16.77;15.90;;;14.40;99.90;;;;;;5001803;28;20454;-69
2021/08/25 00:12:12;;;;;;;16.17;15.23;;;14.30;99.90;;;;;;5015057;28;20450;-70
2021/08/25 00:14:41;;;;;;;16.20;15.30;;;14.30;99.90;;;;;;5015203;28;20445;-70
2021/08/25 00:17:09;;;;;;;15.00;14.30;;;14.30;99.90;;;;;;5015294;28;20445;-70
2021/08/25 00:19:36;;;;;;;16.97;15.43;;;14.20;99.90;;;;;;5010222;28;20443;-69
2021/08/25 00:22:03;;;;;;;16.07;15.27;;;14.20;99.90;;;;;;4995256;28;20438;-71
2021/08/25 00:24:30;;;;;;;15.37;14.60;;;14.10;99.90;;;;;;4995310;28;20458;-71
2021/08/25 00:26:58;;;;;;;16.00;15.00;;;14.10;99.90;;;;;;4995296;28;20489;-71
2021/08/25 00:29:24;;;;;;;17.23;15.83;;;14.00;99.90;;;;;;4998099;28;20454;-70
2021/08/25 00:31:51;;;;;;;15.57;14.50;;;14.00;99.90;;;;;;5014678;28;20441;-70
2021/08/25 00:34:19;;;;;;;15.43;14.60;;;14.00;99.90;;;;;;5014714;28;20493;-69
2021/08/25 00:36:46;;;;;;;15.83;14.73;;;14.00;99.90;;;;;;5014781;28;20453;-70
2021/08/25 00:39:13;;;;;;;15.87;14.97;;;14.00;99.90;;;;;;5013767;28;20450;-70
2021/08/25 00:41:39;;;;;;;15.40;14.60;;;14.00;99.90;;;;;;4994850;28;20869;-70
2021/08/25 00:44:06;;;;;;;15.10;14.30;;;14.00;99.90;;;;;;4995089;28;20471;-69
2021/08/25 00:46:35;;;;;;;15.63;14.83;;;14.10;99.90;;;;;;4994971;28;20481;-70
2021/08/25 00:49:03;;;;;;;16.17;15.27;;;14.10;99.90;;;;;;4994988;28;20443;-69
2021/08/25 00:51:31;;;;;;;15.20;14.43;;;14.10;99.90;;;;;;5014335;28;20458;-70
2021/08/25 00:53:59;;;;;;;16.63;15.70;;;14.10;99.90;;;;;;5014163;28;20468;-70
2021/08/25 00:56:26;;;;;;;15.43;14.73;;;14.20;99.90;;;;;;5014557;28;20449;-69
2021/08/25 00:58:53;;;;;;;14.90;14.20;;;14.20;99.90;;;;;;5014610;28;20809;-70
2021/08/25 01:01:32;;;;;;;15.77;14.63;;;14.20;99.90;;;;;;4996266;28;20479;-70
2021/08/25 01:04:04;;;;;;;15.10;14.40;;;14.20;99.90;;;;;;4994533;28;21003;-69
2021/08/25 01:06:33;;;;;;;15.23;14.53;;;14.20;99.90;;;;;;4994537;28;20486;-70
2021/08/25 01:09:03;;;;;;;15.03;14.10;;;14.20;99.90;;;;;;4994466;28;20474;-69
2021/08/25 01:11:29;;;;;;;15.57;14.77;;;14.20;99.90;;;;;;5012769;28;20943;-70
2021/08/25 01:13:56;;;;;;;15.97;15.07;;;14.20;99.90;;;;;;5013949;28;20882;-70
2021/08/25 01:16:24;;;;;;;14.93;14.23;;;14.30;99.90;;;;;;5014333;28;20451;-70
2021/08/25 01:18:51;;;;;;;14.63;13.93;;;14.20;99.90;;;;;;5013905;28;20445;-70
2021/08/25 01:21:18;;;;;;;15.40;14.30;;;14.20;99.90;;;;;;4996765;28;20451;-69
2021/08/25 01:23:56;;;;;;;14.63;14.07;;;14.30;99.90;;;;;;4994379;28;20489;-70
2021/08/25 01:26:24;;;;;;;15.50;14.63;;;14.10;99.90;;;;;;4994478;28;20486;-71
2021/08/25 01:28:55;;;;;;;16.30;15.33;;;14.10;99.90;;;;;;4994313;28;20443;-70
2021/08/25 01:31:27;;;;;;;16.17;15.27;;;14.00;99.90;;;;;;5011132;28;20446;-69
2021/08/25 01:34:03;;;;;;;15.13;14.33;;;13.90;99.90;;;;;;5013823;28;20470;-70
2021/08/25 01:36:30;;;;;;;15.93;14.93;;;13.80;99.90;;;;;;5013711;28;20442;-70
2021/08/25 01:38:57;;;;;;;15.77;14.50;;;13.70;99.90;;;;;;5013701;28;20445;-69
2021/08/25 01:41:24;;;;;;;16.30;15.40;;;13.60;99.90;;;;;;4995974;28;20951;-70
2021/08/25 01:43:52;;;;;;;15.63;14.67;;;13.60;99.90;;;;;;4993862;28;20844;-69
2021/08/25 01:46:21;;;;;;;14.90;14.10;;;13.60;99.90;;;;;;4993878;28;20479;-69
2021/08/25 01:48:50;;;;;;;16.73;15.83;;;13.40;99.90;;;;;;5003285;28;21006;-70
2021/08/25 01:51:17;;;;;;;15.07;14.37;;;13.40;99.90;;;;;;5013262;28;20453;-70
2021/08/25 01:53:43;;;;;;;15.30;14.60;;;13.30;99.90;;;;;;5013144;28;20462;-70
2021/08/25 01:56:10;;;;;;;14.80;14.00;;;13.30;99.90;;;;;;5013353;28;20442;-70
2021/08/25 01:58:38;;;;;;;15.87;14.97;;;13.30;99.90;;;;;;5003874;28;20948;-70
2021/08/25 02:01:06;;;;;;;15.93;15.10;;;13.30;99.90;;;;;;4993459;28;20451;-71
2021/08/25 02:03:32;;;;;;;15.90;15.03;;;13.30;99.90;;;;;;4992874;28;20479;-70
2021/08/25 02:06:00;;;;;;;15.40;14.57;;;13.30;99.90;;;;;;4993445;28;20446;-70
2021/08/25 02:08:27;;;;;;;16.40;15.40;;;13.20;99.90;;;;;;5000980;28;20450;-70
2021/08/25 02:10:54;;;;;;;15.87;15.10;;;13.30;99.90;;;;;;5012895;28;20446;-68
2021/08/25 02:13:20;;;;;;;15.77;14.93;;;13.30;99.90;;;;;;5012838;28;20473;-70
2021/08/25 02:15:48;;;;;;;15.53;14.70;;;13.30;99.90;;;;;;5013171;28;20446;-70
2021/08/25 02:18:15;;;;;;;15.33;14.60;;;13.20;99.90;;;;;;5010614;28;20443;-69
2021/08/25 02:20:41;;;;;;;17.07;15.93;;;13.20;99.90;;;;;;5013077;28;20453;-70
2021/08/25 02:23:09;;;;;;;16.80;15.80;;;13.20;99.90;;;;;;5012603;28;20473;-70
2021/08/25 02:25:36;;;;;;;16.80;15.70;;;13.10;99.90;;;;;;5012885;28;20450;-70
2021/08/25 02:28:03;;;;;;;16.30;15.30;;;13.10;99.90;;;;;;5009125;28;20479;-69
2021/08/25 02:30:30;;;;;;;15.90;15.10;;;13.10;99.90;;;;;;4993318;28;20443;-70
2021/08/25 02:32:57;;;;;;;16.60;15.70;;;13.00;99.90;;;;;;4992760;28;20467;-69
2021/08/25 02:35:24;;;;;;;16.53;15.23;;;13.00;99.90;;;;;;4993006;28;20443;-70
2021/08/25 02:37:51;;;;;;;17.23;16.33;;;12.90;99.90;;;;;;4994334;28;20443;-70
2021/08/25 02:40:19;;;;;;;16.67;15.77;;;13.00;99.90;;;;;;5012848;28;20951;-70
2021/08/25 02:42:46;;;;;;;17.50;16.20;;;13.00;99.90;;;;;;5012157;28;20469;-69
2021/08/25 02:45:13;;;;;;;16.20;15.40;;;12.90;99.90;;;;;;5012595;28;20469;-69
2021/08/25 02:47:40;;;;;;;16.13;15.13;;;12.90;99.90;;;;;;5012047;28;20967;-70
2021/08/25 02:50:08;;;;;;;17.57;16.40;;;12.80;99.90;;;;;;5012532;28;20500;-70
2021/08/25 02:52:34;;;;;;;16.40;15.40;;;12.80;99.90;;;;;;5012065;28;20497;-69
2021/08/25 02:55:01;;;;;;;16.13;14.97;;;12.80;99.90;;;;;;5012334;28;20441;-70
2021/08/25 02:57:29;;;;;;;17.57;16.57;;;12.80;99.90;;;;;;5012273;28;20446;-69
2021/08/25 02:59:56;;;;;;;17.77;16.67;;;12.70;99.90;;;;;;4993880;28;20451;-69
2021/08/25 03:02:23;;;;;;;16.97;16.10;;;12.70;99.90;;;;;;4992125;28;20478;-70
2021/08/25 03:04:49;;;;;;;17.43;16.53;;;12.70;99.90;;;;;;4992684;28;20447;-70
2021/08/25 03:07:16;;;;;;;16.70;15.63;;;12.70;99.90;;;;;;4992514;28;20478;-70
2021/08/25 03:09:43;;;;;;;15.77;14.90;;;12.80;99.90;;;;;;5008257;28;20453;-70
2021/08/25 03:12:10;;;;;;;15.87;14.87;;;12.80;99.90;;;;;;5011680;28;20473;-70
2021/08/25 03:14:38;;;;;;;16.53;15.40;;;12.80;99.90;;;;;;5012096;28;20454;-70
2021/08/25 03:17:05;;;;;;;18.50;17.40;;;12.80;99.90;;;;;;5003930;28;20455;-70
2021/08/25 03:19:31;;;;;;;15.50;14.70;;;12.80;99.90;;;;;;4992268;28;20439;-70
2021/08/25 03:21:58;;;;;;;16.83;15.93;;;12.90;99.90;;;;;;4992088;28;20447;-70
2021/08/25 03:24:25;;;;;;;16.33;15.07;;;12.90;99.90;;;;;;4992119;28;20493;-70
2021/08/25 03:26:52;;;;;;;17.33;16.10;;;12.90;99.90;;;;;;4997999;28;20513;-70
2021/08/25 03:29:18;;;;;;;16.87;16.00;;;12.90;99.90;;;;;;5011963;28;20453;-71
2021/08/25 03:31:46;;;;;;;16.50;15.60;;;13.00;99.90;;;;;;5011647;28;20450;-70
2021/08/25 03:34:13;;;;;;;15.80;15.00;;;12.90;99.90;;;;;;5011695;28;20476;-70
2021/08/25 03:36:40;;;;;;;16.37;15.57;;;12.90;99.90;;;;;;5007378;28;20948;-70
2021/08/25 03:39:07;;;;;;;15.93;15.13;;;12.80;99.90;;;;;;4996715;28;20446;-70
2021/08/25 03:41:34;;;;;;;17.63;16.63;;;12.70;99.90;;;;;;4991815;28;20790;-69
2021/08/25 03:44:00;;;;;;;17.27;16.27;;;12.70;99.90;;;;;;4992275;28;20454;-70
2021/08/25 03:46:27;;;;;;;16.60;15.70;;;12.60;99.90;;;;;;4991855;28;20454;-70
2021/08/25 03:48:55;;;;;;;16.10;15.30;;;12.60;99.90;;;;;;4998232;28;20450;-70
2021/08/25 03:51:22;;;;;;;17.07;16.10;;;12.60;99.90;;;;;;5011437;28;20449;-70
2021/08/25 03:53:49;;;;;;;17.57;16.37;;;12.50;99.90;;;;;;5011434;28;20470;-70
2021/08/25 03:56:15;;;;;;;18.87;16.60;;;12.50;99.90;;;;;;5011637;28;20449;-70
2021/08/25 03:58:42;;;;;;;16.70;15.60;;;12.40;99.90;;;;;;5006964;28;20443;-70
2021/08/25 04:01:09;;;;;;;17.53;16.43;;;12.40;99.90;;;;;;4991639;28;20462;-69
2021/08/25 04:03:35;;;;;;;16.80;15.90;;;12.30;99.90;;;;;;4991696;28;20847;-69
2021/08/25 04:06:04;;;;;;;16.43;15.63;;;12.30;99.90;;;;;;4991895;28;20454;-70
2021/08/25 04:08:31;;;;;;;18.13;16.90;;;12.20;99.90;;;;;;4993670;28;20491;-69
2021/08/25 04:10:58;;;;;;;18.00;16.90;;;12.20;99.90;;;;;;5011181;28;20821;-70
2021/08/25 04:13:25;;;;;;;17.00;16.00;;;12.20;99.90;;;;;;5010894;28;20473;-70
2021/08/25 04:15:51;;;;;;;16.70;15.47;;;12.10;99.90;;;;;;5011450;28;20473;-69
2021/08/25 04:18:18;;;;;;;17.20;16.20;;;12.10;99.90;;;;;;5010356;28;20442;-70
2021/08/25 04:20:45;;;;;;;19.77;18.40;;;12.00;99.90;;;;;;4994708;28;20450;-69
2021/08/25 04:23:13;;;;;;;18.00;17.00;;;12.10;99.90;;;;;;5008857;28;20461;-70
2021/08/25 04:25:41;;;;;;;18.93;17.73;;;12.00;99.90;;;;;;5009003;28;20450;-70
2021/08/25 04:28:08;;;;;;;17.47;16.20;;;12.00;99.90;;;;;;5010709;28;20516;-68
2021/08/25 04:30:35;;;;;;;18.40;17.00;;;12.00;99.90;;;;;;5012090;28;20477;-69
2021/08/25 04:33:02;;;;;;;18.40;17.20;;;12.00;99.90;;;;;;5011662;28;20466;-70
2021/08/25 04:35:29;;;;;;;18.63;17.47;;;12.00;99.90;;;;;;5012507;28;20815;-70
2021/08/25 04:37:56;;;;;;;18.80;17.60;;;12.00;99.90;;;;;;5013726;28;20960;-70
2021/08/25 04:40:24;;;;;;;19.70;18.30;;;12.00;99.90;;;;;;5013636;28;20446;-69
2021/08/25 04:42:50;;;;;;;17.97;17.00;;;12.00;99.90;;;;;;5013338;28;20469;-70
2021/08/25 04:45:17;;;;;;;19.00;17.80;;;12.00;99.90;;;;;;5014502;28;20453;-69
2021/08/25 04:47:44;;;;;;;19.10;18.00;;;12.00;99.90;;;;;;5014376;28;20492;-70
2021/08/25 04:50:11;;;;;;;18.27;17.23;;;12.00;99.90;;;;;;5014447;28;20453;-70
2021/08/25 04:52:38;;;;;;;18.43;17.43;;;12.00;99.90;;;;;;5014086;28;20465;-68
2021/08/25 04:55:05;;;;;;;19.10;17.90;;;12.10;99.90;;;;;;5014363;28;20446;-69
2021/08/25 04:57:33;;;;;;;18.83;17.77;;;12.10;99.90;;;;;;5014291;28;20819;-70
2021/08/25 05:00:00;;;;;;;18.40;17.30;;;12.10;99.90;;;;;;5014178;28;20457;-68
2021/08/25 05:02:27;;;;;;;18.90;17.70;;;12.20;99.90;;;;;;5013680;28;20482;-69
2021/08/25 05:04:53;;;;;;;20.73;19.27;;;12.20;99.90;;;;;;5014381;28;20814;-68
2021/08/25 05:07:20;;;;;;;20.30;18.77;;;12.20;99.90;;;;;;5014173;28;20485;-68
2021/08/25 05:09:47;;;;;;;19.17;17.87;;;12.30;99.90;;;;;;5014109;28;20441;-69
2021/08/25 05:12:16;;;;;;;19.33;18.10;;;12.40;99.90;;;;;;5013732;28;20446;-69
2021/08/25 05:14:43;;;;;;;20.53;19.03;;;12.40;99.90;;;;;;5013956;28;20438;-69
2021/08/25 05:17:10;;;;;;;19.23;17.90;;;12.50;99.90;;;;;;5014470;28;20445;-68
2021/08/25 05:19:37;;;;;;;19.83;18.73;;;12.60;99.90;;;;;;5014007;28;20445;-68
2021/08/25 05:22:04;;;;;;;19.10;17.90;;;12.70;99.90;;;;;;5013587;28;20477;-68
2021/08/25 05:24:31;;;;;;;21.50;19.80;;;12.80;99.90;;;;;;5013727;28;20446;-68
2021/08/25 05:26:57;;;;;;;19.80;18.50;;;12.80;99.90;;;;;;5013692;28;20456;-68
2021/08/25 05:29:24;;;;;;;19.37;18.00;;;12.90;99.90;;;;;;5013613;28;20446;-68
2021/08/25 05:31:52;;;;;;;20.90;19.60;;;13.10;99.90;;;;;;5013375;28;20531;-67
2021/08/25 05:34:19;;;;;;;18.93;17.73;;;13.20;99.90;;;;;;5013665;28;20466;-67
2021/08/25 05:36:45;;;;;;;19.37;18.17;;;13.20;99.90;;;;;;5013540;28;20445;-68
2021/08/25 05:39:12;;;;;;;19.60;18.20;;;13.20;99.90;;;;;;5012313;28;20446;-68
2021/08/25 05:41:39;;;;;;;19.97;18.67;;;13.30;99.90;;;;;;5013332;28;20808;-67
2021/08/25 05:44:06;;;;;;;21.10;19.80;;;13.30;99.90;;;;;;5013351;28;20967;-67
2021/08/25 05:46:32;;;;;;;20.07;18.47;;;13.40;99.90;;;;;;5013314;28;20446;-67
2021/08/25 05:49:01;;;;;;;20.63;18.87;;;13.50;99.90;;;;;;5013250;28;20485;-67
2021/08/25 05:51:28;;;;;;;19.57;18.37;;;13.60;99.90;;;;;;5013104;28;20442;-68
2021/08/25 05:53:55;;;;;;;21.10;19.37;;;13.60;99.90;;;;;;5013103;28;20477;-68
2021/08/25 05:56:22;;;;;;;20.30;18.97;;;13.70;99.90;;;;;;5013286;28;20446;-68
2021/08/25 05:58:48;;;;;;;21.13;19.53;;;13.80;99.90;;;;;;5013083;28;20453;-67
2021/08/25 06:01:16;;;;;;;20.77;19.43;;;13.90;99.90;;;;;;5012986;28;20794;-68
2021/08/25 06:03:43;;;;;;;20.03;18.40;;;13.90;99.90;;;;;;5012782;28;20514;-68
2021/08/25 06:06:12;;;;;;;19.20;18.00;;;14.00;99.90;;;;;;5012983;28;20446;-68
2021/08/25 06:08:39;;;;;;;20.17;18.67;;;14.00;99.90;;;;;;5012834;28;20481;-68
2021/08/25 06:11:05;;;;;;;20.20;18.77;;;14.10;99.90;;;;;;5012852;28;20446;-67
2021/08/25 06:13:32;;;;;;;20.50;19.10;;;14.20;99.90;;;;;;5012322;28;20473;-67
2021/08/25 06:15:59;;;;;;;20.90;19.50;;;14.30;99.90;;;;;;5012764;28;20453;-67
2021/08/25 06:18:25;;;;;;;22.93;20.77;;;14.40;99.90;;;;;;5012896;28;20504;-68
2021/08/25 06:20:52;;;;;;;19.93;18.57;;;14.40;99.90;;;;;;5012751;28;20484;-67
2021/08/25 06:23:20;;;;;;;20.87;19.30;;;14.50;99.90;;;;;;5012415;28;20546;-68
2021/08/25 06:25:49;;;;;;;20.57;19.10;;;14.60;99.90;;;;;;5012655;28;20453;-67
2021/08/25 06:28:16;;;;;;;20.20;19.00;;;14.70;99.90;;;;;;5012511;28;20891;-67
2021/08/25 06:30:43;;;;;;;19.43;18.23;;;14.70;99.90;;;;;;5012582;28;20446;-67
2021/08/25 06:33:09;;;;;;;20.13;18.87;;;14.80;99.90;;;;;;5012236;28;20504;-67
2021/08/25 06:35:36;;;;;;;19.10;18.10;;;14.90;99.90;;;;;;5012446;28;20856;-67
2021/08/25 06:38:03;;;;;;;19.37;18.17;;;15.00;99.90;;;;;;5012410;28;20442;-67
2021/08/25 06:40:32;;;;;;;19.23;17.90;;;15.10;99.90;;;;;;5012140;28;20446;-68
2021/08/25 06:42:59;;;;;;;19.07;17.73;;;15.30;99.90;;;;;;5011768;28;20477;-67
2021/08/25 06:45:25;;;;;;;19.70;18.50;;;15.40;99.90;;;;;;5012241;28;20461;-67
2021/08/25 06:47:52;;;;;;;19.43;18.30;;;15.50;99.90;;;;;;5012137;28;20481;-68
2021/08/25 06:50:19;;;;;;;20.90;19.43;;;15.70;99.90;;;;;;5011942;28;20457;-67
2021/08/25 06:52:45;;;;;;;20.60;19.27;;;15.70;99.90;;;;;;5011786;28;20995;-68
2021/08/25 06:55:12;;;;;;;19.33;18.23;;;15.90;99.90;;;;;;5012021;28;20450;-68
2021/08/25 06:57:40;;;;;;;20.27;18.97;;;16.00;99.90;;;;;;5011957;28;20959;-68
2021/08/25 07:00:08;;;;;;;19.23;18.03;;;16.10;99.90;;;;;;5012268;28;20446;-68
2021/08/25 07:02:34;;;;;;;18.70;17.70;;;16.10;99.90;;;;;;5011533;28;20987;-68
2021/08/25 07:05:01;;;;;;;19.77;18.30;;;16.20;99.90;;;;;;5012123;28;20450;-67
2021/08/25 07:07:28;;;;;;;18.57;17.60;;;16.30;99.90;;;;;;5011862;28;20444;-67
2021/08/25 07:09:54;;;;;;;19.20;17.90;;;16.50;99.90;;;;;;5011958;28;20442;-68
2021/08/25 07:12:21;;;;;;;18.07;17.07;;;16.60;99.90;;;;;;5011570;28;20453;-68
2021/08/25 07:14:50;;;;;;;19.30;18.10;;;16.60;99.90;;;;;;5011824;28;20442;-67
2021/08/25 07:17:17;;;;;;;18.97;18.07;;;16.70;99.90;;;;;;5011762;28;20479;-68
2021/08/25 07:19:44;;;;;;;18.60;17.50;;;16.80;99.90;;;;;;5011920;28;20438;-68
2021/08/25 07:22:11;;;;;;;18.97;17.83;;;16.90;99.90;;;;;;5011469;28;20449;-67
2021/08/25 07:24:38;;;;;;;18.73;17.83;;;17.00;99.90;;;;;;5011579;28;20974;-67
2021/08/25 07:27:05;;;;;;;20.70;19.30;;;17.10;99.90;;;;;;5011551;28;20442;-68
2021/08/25 07:29:32;;;;;;;19.20;18.10;;;17.20;99.90;;;;;;5011608;28;21045;-68
2021/08/25 07:32:01;;;;;;;18.90;17.83;;;17.30;99.90;;;;;;5011290;28;20445;-68
2021/08/25 07:34:28;;;;;;;18.93;18.00;;;17.40;99.90;;;;;;5011708;28;20556;-69
2021/08/25 07:36:56;;;;;;;20.23;18.70;;;17.50;99.90;;;;;;5011641;28;20931;-67
2021/08/25 07:39:23;;;;;;;19.70;18.10;;;17.60;99.90;;;;;;5011717;28;20444;-68
2021/08/25 07:41:50;;;;;;;18.97;17.87;;;17.70;99.90;;;;;;5011426;28;20460;-67
2021/08/25 07:44:16;;;;;;;19.90;18.67;;;17.80;99.90;;;;;;5011461;28;20967;-68
2021/08/25 07:46:43;;;;;;;21.43;20.20;;;17.90;99.90;;;;;;5011424;28;20450;-67
2021/08/25 07:49:11;;;;;;;20.57;19.23;;;18.00;99.90;;;;;;5011350;28;20489;-67
2021/08/25 07:51:38;;;;;;;20.40;19.10;;;18.20;99.90;;;;;;5011223;28;20453;-67
2021/08/25 07:54:05;;;;;;;20.77;19.53;;;18.30;99.90;;;;;;5011380;28;20473;-68
2021/08/25 07:56:32;;;;;;;20.90;19.30;;;18.50;99.90;;;;;;5011245;28;20465;-68
2021/08/25 07:58:58;;;;;;;20.37;19.07;;;18.60;99.90;;;;;;5011446;28;20479;-67
2021/08/25 08:01:25;;;;;;;20.50;19.40;;;18.70;99.90;;;;;;5011426;28;20858;-68
2021/08/25 08:03:52;;;;;;;20.67;19.40;;;18.80;99.90;;;;;;5014721;28;20505;-68
2021/08/25 08:06:20;;;;;;;20.47;19.03;;;18.80;99.90;;;;;;5015307;28;20445;-68
2021/08/25 08:08:46;;;;;;;19.83;18.67;;;19.00;99.90;;;;;;5014898;28;20504;-67
2021/08/25 08:11:13;;;;;;;19.50;18.40;;;19.00;99.90;;;;;;5014995;28;20457;-68
2021/08/25 08:13:40;;;;;;;19.13;17.73;;;19.10;99.90;;;;;;5014797;28;20466;-68
2021/08/25 08:16:08;;;;;;;18.83;17.63;;;19.20;99.90;;;;;;5014639;28;20450;-68
2021/08/25 08:18:37;;;;;;;18.97;17.87;;;19.20;99.90;;;;;;5015096;28;20812;-68
2021/08/25 08:21:04;;;;;;;17.83;16.83;;;19.40;99.90;;;;;;5014812;28;20485;-68
2021/08/25 08:23:33;;;;;;;18.60;17.40;;;19.50;99.90;;;;;;5014964;28;20478;-68
2021/08/25 08:26:00;;;;;;;18.10;17.00;;;19.60;99.90;;;;;;5014815;28;20950;-68
2021/08/25 08:28:27;;;;;;;19.00;17.87;;;19.60;99.90;;;;;;5014848;28;20857;-67
2021/08/25 08:30:54;;;;;;;18.13;17.20;;;19.70;99.90;;;;;;5014649;28;20936;-69
2021/08/25 08:33:21;;;;;;;19.80;18.60;;;19.90;99.90;;;;;;5014640;28;20469;-68
2021/08/25 08:35:47;;;;;;;18.50;17.10;;;20.00;99.90;;;;;;5014716;28;20457;-67
2021/08/25 08:38:14;;;;;;;19.00;17.87;;;20.00;99.50;;;;;;5014714;28;20449;-68
2021/08/25 08:40:42;;;;;;;18.97;17.77;;;20.10;99.90;;;;;;5014564;28;20453;-68
2021/08/25 08:43:11;;;;;;;17.77;16.67;;;20.20;99.90;;;;;;5014287;28;20476;-67
2021/08/25 08:45:40;;;;;;;18.40;17.30;;;20.30;99.90;;;;;;5014516;28;20461;-68
2021/08/25 08:48:08;;;;;;;19.00;18.00;;;20.40;99.90;;;;;;5014540;28;20473;-68
2021/08/25 08:50:35;;;;;;;21.43;20.10;;;20.50;99.90;;;;;;5014438;28;20516;-67
2021/08/25 08:53:02;;;;;;;21.23;19.23;;;20.60;99.90;;;;;;5014023;28;20461;-67
2021/08/25 08:55:29;;;;;;;21.50;19.70;;;20.70;99.60;;;;;;5014450;28;20449;-67
2021/08/25 08:57:57;;;;;;;20.80;19.33;;;20.70;99.40;;;;;;5014378;28;20955;-68
2021/08/25 09:00:24;;;;;;;19.73;18.13;;;20.90;98.40;;;;;;5014674;28;20450;-68
2021/08/25 09:02:50;;;;;;;20.17;18.77;;;21.00;97.20;;;;;;5014005;28;20481;-68
2021/08/25 09:05:22;;;;;;;21.20;19.20;;;21.20;97.40;;;;;;5014238;28;20457;-68
2021/08/25 09:07:51;;;;;;;19.97;18.57;;;21.30;97.10;;;;;;5013994;28;20987;-67
2021/08/25 09:10:23;;;;;;;19.30;18.30;;;21.30;96.70;;;;;;5013996;28;20496;-68
2021/08/25 09:12:50;;;;;;;21.07;19.80;;;21.50;96.40;;;;;;5013551;28;20470;-69
2021/08/25 09:15:23;;;;;;;19.43;18.33;;;21.60;94.90;;;;;;5013971;28;20441;-68
2021/08/25 09:17:57;;;;;;;20.63;19.33;;;21.70;94.50;;;;;;5013762;28;20446;-67
2021/08/25 09:20:24;;;;;;;18.63;17.63;;;21.80;93.40;;;;;;5014092;28;20442;-67
2021/08/25 09:23:08;;;;;;;19.00;18.10;;;21.70;89.60;;;;;;5013358;28;20466;-68
2021/08/25 09:25:36;;;;;;;18.90;17.93;;;21.70;87.10;;;;;;5013855;28;20454;-68
2021/08/25 09:28:03;;;;;;;18.80;17.80;;;21.80;85.50;;;;;;5013745;28;20456;-68
2021/08/25 09:30:59;;;;;;;18.30;17.40;;;21.70;84.10;;;;;;5013547;28;20484;-68
2021/08/25 09:33:27;;;;;;;18.70;17.67;;;21.60;78.20;;;;;;5013549;28;20465;-68
2021/08/25 09:35:59;;;;;;;18.37;17.40;;;21.50;78.70;;;;;;5013365;28;20478;-68
2021/08/25 09:38:27;;;;;;;18.73;17.63;;;21.60;75.20;;;;;;5013537;28;20442;-67
2021/08/25 09:40:56;;;;;;;17.50;16.80;;;21.70;75.20;;;;;;5013347;28;20446;-68
2021/08/25 09:43:35;;;;;;;17.50;16.80;;;21.90;69.00;;;;;;5013392;28;20470;-68
2021/08/25 09:46:11;;;;;;;17.60;16.80;;;21.90;69.80;;;;;;5013343;28;20519;-67
2021/08/25 09:48:40;;;;;;;17.70;17.00;;;22.00;70.10;;;;;;5013304;28;20490;-68
2021/08/25 09:51:07;;;;;;;18.63;17.73;;;22.20;67.20;;;;;;5013187;28;20446;-67
2021/08/25 09:53:34;;;;;;;19.23;18.23;;;22.30;65.00;;;;;;5013149;28;20458;-67
2021/08/25 09:56:01;;;;;;;20.23;18.50;;;22.40;64.90;;;;;;5013190;28;20438;-68
2021/08/25 09:58:28;;;;;;;18.07;17.27;;;22.30;64.20;;;;;;5013108;28;20940;-69
2021/08/25 10:00:55;;;;;;;17.73;16.93;;;22.20;62.20;;;;;;5010974;28;20450;-67
2021/08/25 10:03:24;;;;;;;17.73;16.93;;;22.50;65.70;;;;;;5007953;28;20482;-67
2021/08/25 10:05:51;;;;;;;18.93;17.87;;;22.50;59.50;;;;;;4993185;28;20466;-66
2021/08/25 10:08:18;;;;;;;19.37;18.20;;;22.50;62.90;;;;;;4993243;28;20488;-67
2021/08/25 10:10:46;;;;;;;20.13;19.23;;;22.50;59.70;;;;;;4997956;28;20481;-66
2021/08/25 10:13:14;;;;;;;18.60;17.80;;;22.50;62.20;;;;;;5012220;28;20899;-67
2021/08/25 10:15:45;;;;;;;19.27;18.37;;;22.50;59.90;;;;;;5012608;28;20450;-67
2021/08/25 10:18:25;;;;;;;19.23;18.43;;;22.50;61.70;;;;;;5012816;28;21050;-67
2021/08/25 10:20:53;;;;;;;18.60;17.77;;;22.50;59.80;;;;;;5006587;28;20453;-68
2021/08/25 10:23:20;;;;;;;18.90;17.83;;;22.40;58.50;;;;;;4993945;28;20505;-67
2021/08/25 10:26:05;;;;;;;17.87;17.10;;;22.60;59.40;;;;;;4992453;28;20454;-67
2021/08/25 10:29:02;;;;;;;19.90;18.90;;;22.70;60.00;;;;;;4992336;28;20546;-66
2021/08/25 10:32:13;;;;;;;20.20;19.20;;;22.90;60.90;;;;;;4992715;28;20451;-66
2021/08/25 10:34:42;;;;;;;19.23;18.33;;;23.40;60.80;;;;;;4994089;28;20459;-67
2021/08/25 10:37:29;;;;;;;20.50;19.20;;;23.60;61.50;;;;;;4993001;28;20790;-68
2021/08/25 10:40:02;;;;;;;19.47;18.57;;;23.90;58.70;;;;;;4992644;28;20909;-68
2021/08/25 10:42:49;;;;;;;20.40;19.40;;;24.10;59.30;;;;;;4992384;28;20490;-67
2021/08/25 10:45:18;;;;;;;20.03;19.10;;;24.20;58.80;;;;;;4992659;28;20446;-67
2021/08/25 10:48:00;;;;;;;20.00;19.00;;;23.80;54.90;;;;;;4992866;28;20447;-68
2021/08/25 10:50:52;;;;;;;18.77;18.07;;;23.90;56.40;;;;;;4992677;28;20483;-67
2021/08/25 10:53:38;;;;;;;20.00;18.90;;;23.80;56.80;;;;;;4992356;28;20467;-68
2021/08/25 10:56:10;;;;;;;20.70;19.60;;;23.90;56.00;;;;;;4992535;28;20477;-67
2021/08/25 10:58:47;;;;;;;19.47;18.40;;;24.00;56.10;;;;;;4992678;28;20445;-68
2021/08/25 11:01:25;;;;;;;21.33;20.23;;;24.20;56.10;;;;;;4992241;28;20438;-68
2021/08/25 11:03:53;;;;;;;20.40;19.40;;;24.40;55.90;;;;;;4992381;28;20486;-67
2021/08/25 11:06:31;;;;;;;20.97;19.97;;;24.10;54.40;;;;;;4992280;28;20814;-67
2021/08/25 11:09:14;;;;;;;20.60;19.50;;;23.80;54.80;;;;;;4992241;28;20454;-68
2021/08/25 11:11:45;;;;;;;21.30;20.30;;;24.20;55.20;;;;;;4990886;28;20774;-68
2021/08/25 11:14:20;;;;;;;21.40;20.40;;;24.80;54.70;;;;;;4992325;28;20505;-68
2021/08/25 11:16:48;;;;;;;21.73;20.73;;;25.40;54.30;;;;;;4992397;28;20442;-68
2021/08/25 11:19:27;;;;;;;22.30;21.17;;;25.70;52.20;;;;;;4992898;28;20439;-69
2021/08/25 11:21:55;;;;;;;21.77;20.63;;;25.60;51.00;;;;;;4992010;28;20430;-69
2021/08/25 11:24:22;;;;;;;21.47;20.27;;;25.50;50.90;;;;;;4992138;28;20471;-69
2021/08/25 11:26:50;;;;;;;21.60;20.50;;;25.90;50.60;;;;;;4992085;28;20916;-69
2021/08/25 11:29:19;;;;;;;21.57;20.57;;;26.80;50.10;;;;;;4992070;28;20509;-69
2021/08/25 11:31:46;;;;;;;22.30;21.20;;;27.40;48.80;;;;;;4991911;28;20447;-70
2021/08/25 11:34:13;;;;;;;22.07;21.10;;;28.10;45.80;;;;;;4991851;28;20470;-70
2021/08/25 11:36:55;;;;;;;23.30;22.20;;;28.50;44.70;;;;;;4990996;28;20446;-69
2021/08/25 11:39:22;;;;;;;23.90;22.60;;;29.30;43.20;;;;;;4992185;28;20442;-69
2021/08/25 11:41:50;;;;;;;23.67;22.33;;;29.80;41.70;;;;;;4992017;28;20454;-70
2021/08/25 11:44:35;;;;;;;22.80;21.70;;;32.00;40.60;;;;;;4991737;28;20474;-70
2021/08/25 11:47:13;;;;;;;23.80;22.60;;;32.90;35.60;;;;;;4991984;28;20442;-70
2021/08/25 11:49:40;;;;;;;22.20;21.03;;;33.10;34.40;;;;;;4992051;28;20812;-70
2021/08/25 11:52:10;;;;;;;23.50;22.40;;;34.90;33.60;;;;;;4991757;28;20453;-71
2021/08/25 11:54:37;;;;;;;23.83;22.60;;;35.60;31.80;;;;;;4992091;28;20581;-70
2021/08/25 11:57:05;;;;;;;23.02;22.13;;;37.00;30.00;;;;;;4991803;28;20207;-71
2021/08/25 11:59:31;;;;;;;24.27;21.85;;;37.40;28.10;;;;;;4991796;28;20657;-71
2021/08/25 12:02:06;;;;;;;21.90;21.00;;;38.40;28.00;;;;;;4991563;28;20241;-71
2021/08/25 12:04:33;;;;;;;21.95;21.00;;;39.00;27.30;;;;;;4991897;28;20206;-70
2021/08/25 12:07:00;;;;;;;23.42;22.33;;;38.90;26.20;;;;;;4991825;28;20207;-70
2021/08/25 12:09:33;;;;;;;23.40;22.40;;;38.90;26.10;;;;;;4991762;28;20285;-70
2021/08/25 12:12:00;;;;;;;22.42;21.52;;;39.60;25.20;;;;;;4991489;28;20203;-71
2021/08/25 12:14:27;;;;;;;23.85;22.60;;;41.00;24.50;;;;;;4991738;28;20277;-70
2021/08/25 12:17:05;;;;;;;23.02;22.02;;;42.00;24.30;;;;;;4991906;28;20265;-70
2021/08/25 12:19:34;;;;;;;24.50;23.20;;;40.80;23.70;;;;;;4991664;28;20658;-71
2021/08/25 12:22:19;;;;;;;24.27;22.92;;;40.20;24.40;;;;;;4991578;28;20243;-71
2021/08/25 12:24:47;;;;;;;24.73;23.52;;;41.10;24.30;;;;;;4992058;28;20277;-70
2021/08/25 12:27:14;;;;;;;24.50;23.40;;;43.10;22.70;;;;;;4991675;28;20207;-72
2021/08/25 12:29:43;;;;;;;24.02;22.90;;;44.00;22.60;;;;;;4991804;28;20227;-71
2021/08/25 12:32:12;;;;;;;23.60;22.60;;;44.20;22.30;;;;;;4991385;28;20684;-71
2021/08/25 12:34:58;;;;;;;25.00;23.80;;;47.30;21.20;;;;;;4991597;28;20207;-71
2021/08/25 12:37:48;;;;;;;22.83;21.83;;;48.20;20.20;;;;;;4991647;28;20632;-71